»·PEaware :: UAL113 KDEN-KABQ

UAL113 :: KDEN-KABQ

FLIGHT INFORMATION

Flight Status: Arrived
Operator:
United Airlines
More flights by this operator :: More flights under this callsign
Pilot: Trevor P. (20148)
Aircraft: BOEING 777-200
(B772)
More flights by this aircraft type
Origin: KDEN Denver Intl
United States
Destination: KABQ Albuquerque Intl Sunport
United States
More flights between these airports :: More routes between these airports
Route: +SPAZZ4 ZAPAA DATME SNDIA3
File this flight plan on PilotEdge
Remarks:
Altitude:
(Current/Filed)
36,000ft
Speed:
(Current/Filed)
425kts
Departed: 24-Sep-19 02:58 PM
Arrived: 24-Sep-19 03:50 PM
Distance/Time
Traveled:
303nm/0:52
Distance/Time
To Go:
Arrived

Flight Plot

Page will automatically refresh every two minutes.

Flight plan parsing failed; only flown route is shown


Map Options




Map Legend


Flown Route
Filed Route
Departure Airport
Arrival Airport
Navaid (VOR, NDB)
Fix

Horizontal Profiles

Position Reports

Time Latitude Longitude Heading Altitude Ground
Speed
24-Sep-19 14:24 39.854498 -104.673134 179 5444ft 0kts
24-Sep-19 14:25 39.854498 -104.673134 179 5444ft 0kts
24-Sep-19 14:26 39.854498 -104.673134 179 5444ft 0kts
24-Sep-19 14:27 39.854498 -104.673134 179 5444ft 0kts
24-Sep-19 14:28 39.854498 -104.673134 179 5444ft 0kts
24-Sep-19 14:29 39.854498 -104.673134 179 5444ft 0kts
24-Sep-19 14:30 39.854498 -104.673134 179 5444ft 0kts
24-Sep-19 14:38 39.855240 -104.672634 267 5444ft 2kts
24-Sep-19 14:39 39.855245 -104.672309 269 5444ft 0kts
24-Sep-19 14:40 39.855245 -104.672309 269 5444ft 0kts
24-Sep-19 14:41 39.855245 -104.672310 269 5444ft 0kts
24-Sep-19 14:42 39.855245 -104.672311 269 5444ft 0kts
24-Sep-19 14:43 39.855245 -104.672312 269 5444ft 0kts
24-Sep-19 14:44 39.855245 -104.672313 269 5444ft 0kts
24-Sep-19 14:45 39.855245 -104.672313 269 5444ft 0kts
24-Sep-19 14:46 39.855245 -104.672313 269 5444ft 0kts
24-Sep-19 14:47 39.855245 -104.672313 269 5444ft 0kts
24-Sep-19 14:48 39.855245 -104.672314 269 5444ft 0kts
24-Sep-19 14:49 39.855245 -104.672314 269 5444ft 0kts
24-Sep-19 14:50 39.855242 -104.673398 270 5444ft 16kts
24-Sep-19 14:51 39.856034 -104.678444 274 5444ft 15kts
24-Sep-19 14:52 39.855609 -104.684008 192 5444ft 16kts
24-Sep-19 14:53 39.849947 -104.684086 180 5444ft 31kts
24-Sep-19 14:54 39.843224 -104.684141 181 5444ft 19kts
24-Sep-19 14:55 39.842270 -104.684165 181 5444ft 2kts
24-Sep-19 14:56 39.841170 -104.684229 194 5444ft 24kts
24-Sep-19 14:57 39.840928 -104.722183 272 6661ft 202kts
24-Sep-19 14:58 39.832208 -104.796830 248 10189ft 256kts
24-Sep-19 14:59 39.793136 -104.895522 228 11323ft 337kts
24-Sep-19 15:00 39.703807 -104.932040 171 15995ft 373kts
24-Sep-19 15:02 39.597477 -104.887331 160 19112ft 425kts
24-Sep-19 15:03 39.490039 -104.812415 156 22648ft 449kts
24-Sep-19 15:04 39.368287 -104.762214 171 25778ft 470kts
24-Sep-19 15:05 39.235887 -104.748314 178 28910ft 487kts
24-Sep-19 15:06 39.097727 -104.740533 180 32039ft 496kts
24-Sep-19 15:07 38.967397 -104.783408 206 35308ft 480kts
24-Sep-19 15:08 38.847680 -104.859192 208 36108ft 475kts
24-Sep-19 15:09 38.729103 -104.933076 209 36092ft 472kts
24-Sep-19 15:10 38.614090 -105.013335 210 36073ft 470kts
24-Sep-19 15:11 38.499094 -105.092769 210 36041ft 469kts
24-Sep-19 15:12 38.384505 -105.171872 210 36033ft 467kts
24-Sep-19 15:13 38.270406 -105.250226 210 36059ft 466kts
24-Sep-19 15:14 38.156061 -105.328336 210 36132ft 465kts
24-Sep-19 15:15 38.042329 -105.405741 210 36187ft 464kts
24-Sep-19 15:16 37.929129 -105.482769 210 36234ft 456kts
24-Sep-19 15:17 37.817079 -105.558345 210 36260ft 456kts
24-Sep-19 15:18 37.704455 -105.632238 206 36266ft 458kts
24-Sep-19 15:19 37.584462 -105.688380 202 36252ft 459kts
24-Sep-19 15:19 37.484477 -105.734449 203 36234ft 458kts
24-Sep-19 15:20 37.365372 -105.790297 203 36225ft 456kts
24-Sep-19 15:22 37.226516 -105.855406 203 36236ft 455kts
24-Sep-19 15:23 37.108274 -105.910526 203 36260ft 452kts
24-Sep-19 15:23 37.010571 -105.955928 203 36274ft 449kts
24-Sep-19 15:25 36.873752 -106.019471 203 36279ft 450kts
24-Sep-19 15:26 36.756017 -106.073695 202 36134ft 449kts
24-Sep-19 15:26 36.689537 -106.104255 203 35911ft 421kts
24-Sep-19 15:27 36.637785 -106.127838 202 34950ft 420kts
24-Sep-19 15:28 36.527411 -106.177021 202 32609ft 419kts
24-Sep-19 15:29 36.418973 -106.225145 202 30664ft 408kts
24-Sep-19 15:30 36.313202 -106.272029 202 28622ft 401kts
24-Sep-19 15:31 36.208791 -106.317995 202 26522ft 395kts
24-Sep-19 15:32 36.105624 -106.363223 201 24464ft 390kts
24-Sep-19 15:33 36.004029 -106.407090 201 22456ft 383kts
24-Sep-19 15:34 35.906788 -106.448864 201 21470ft 350kts
24-Sep-19 15:35 35.815445 -106.486343 200 19801ft 343kts
24-Sep-19 15:36 35.725549 -106.522928 199 18128ft 337kts
24-Sep-19 15:37 35.636938 -106.558956 199 16294ft 336kts
24-Sep-19 15:38 35.550153 -106.599068 205 14503ft 329kts
24-Sep-19 15:39 35.470307 -106.643129 205 13832ft 296kts
24-Sep-19 15:40 35.395556 -106.683292 205 12519ft 293kts
24-Sep-19 15:41 35.322632 -106.722426 205 11550ft 272kts
24-Sep-19 15:42 35.254829 -106.761112 208 10526ft 264kts
24-Sep-19 15:43 35.190379 -106.801059 207 9604ft 255kts
24-Sep-19 15:45 35.116208 -106.800925 143 8493ft 250kts
24-Sep-19 15:45 35.069528 -106.758933 147 7661ft 248kts
24-Sep-19 15:46 35.041620 -106.696600 89 7217ft 182kts
24-Sep-19 15:47 35.044434 -106.637300 90 5749ft 160kts
24-Sep-19 15:48 35.044219 -106.594148 90 5368ft 44kts
24-Sep-19 15:49 35.045857 -106.591055 260 5368ft 23kts
24-Sep-19 15:50 35.045720 -106.601733 272 5368ft 22kts

Navigation Log

Ident Type
Flight plan parsing failed, navigation log unavailable